createdAt,value
2019-01-06T00:00:28.559Z,0.00
2019-01-06T00:01:28.876Z,0.00
2019-01-06T00:02:28.533Z,0.00
2019-01-06T00:03:29.571Z,0.00
2019-01-06T00:04:28.525Z,0.00
2019-01-06T00:05:28.779Z,0.00
2019-01-06T00:06:28.497Z,0.00
2019-01-06T00:07:28.848Z,0.00
2019-01-06T00:08:28.490Z,0.00
2019-01-06T00:09:28.463Z,0.00
2019-01-06T00:10:28.704Z,0.00
2019-01-06T00:11:28.440Z,0.00
2019-01-06T00:12:28.438Z,0.00
2019-01-06T00:13:28.930Z,0.00
2019-01-06T00:14:28.672Z,0.00
2019-01-06T00:15:28.392Z,0.00
2019-01-06T00:16:28.631Z,0.00
2019-01-06T00:17:28.365Z,0.00
2019-01-06T00:18:28.370Z,0.00
2019-01-06T00:19:28.597Z,0.00
2019-01-06T00:20:28.650Z,0.00
2019-01-06T00:21:28.317Z,0.00
2019-01-06T00:22:28.316Z,0.00
2019-01-06T00:23:28.322Z,0.00
2019-01-06T00:24:28.364Z,0.00
2019-01-06T00:25:28.298Z,0.00
2019-01-06T00:26:28.525Z,0.00
2019-01-06T00:27:28.251Z,0.00
2019-01-06T00:28:28.253Z,0.00
2019-01-06T00:29:28.231Z,0.00
2019-01-06T00:30:28.487Z,0.00
2019-01-06T00:31:28.212Z,0.00
2019-01-06T00:32:28.462Z,0.00
2019-01-06T00:33:28.207Z,0.00
2019-01-06T00:34:28.181Z,0.00
2019-01-06T00:35:28.185Z,0.00
2019-01-06T00:36:28.203Z,0.00
2019-01-06T00:37:28.659Z,0.00
2019-01-06T00:38:28.156Z,0.00
2019-01-06T00:39:31.725Z,0.00
2019-01-06T00:40:28.357Z,0.00
2019-01-06T00:41:28.103Z,0.00
2019-01-06T00:42:28.090Z,0.00
2019-01-06T00:43:28.089Z,0.00
2019-01-06T00:44:28.071Z,0.00
2019-01-06T00:45:28.085Z,0.00
2019-01-06T00:46:28.305Z,0.00
2019-01-06T00:47:28.030Z,0.00
2019-01-06T00:48:28.044Z,0.00
2019-01-06T00:49:28.045Z,0.00
2019-01-06T00:50:28.001Z,0.00
2019-01-06T00:51:28.240Z,0.00
2019-01-06T00:52:27.989Z,0.00
2019-01-06T00:53:28.051Z,0.00
2019-01-06T00:54:27.984Z,0.00
2019-01-06T00:55:27.972Z,0.00
2019-01-06T00:56:27.934Z,0.00
2019-01-06T00:57:28.267Z,0.00
2019-01-06T00:58:27.952Z,0.00
2019-01-06T00:59:27.940Z,0.00
2019-01-06T01:00:27.901Z,0.00
2019-01-06T01:01:28.140Z,0.00
2019-01-06T01:02:27.948Z,0.00
2019-01-06T01:03:28.127Z,0.00
2019-01-06T01:04:28.119Z,0.00
2019-01-06T01:05:28.096Z,0.00
2019-01-06T01:06:27.836Z,0.00
2019-01-06T01:07:28.064Z,0.00
2019-01-06T01:08:27.813Z,0.00
2019-01-06T01:09:28.057Z,0.00
2019-01-06T01:10:27.783Z,0.00
2019-01-06T01:11:27.774Z,0.00
2019-01-06T01:12:28.024Z,0.00
2019-01-06T01:13:28.260Z,0.00
2019-01-06T01:14:27.750Z,0.00
2019-01-06T01:15:27.752Z,0.00
2019-01-06T01:16:27.990Z,0.00
2019-01-06T01:17:27.710Z,0.00
2019-01-06T01:18:27.695Z,0.00
2019-01-06T01:19:27.944Z,0.00
2019-01-06T01:20:27.675Z,0.00
2019-01-06T01:21:27.912Z,0.00
2019-01-06T01:22:27.651Z,0.00
2019-01-06T01:23:27.642Z,0.00
2019-01-06T01:24:27.640Z,0.00
2019-01-06T01:25:27.875Z,0.00
2019-01-06T01:26:27.610Z,0.00
2019-01-06T01:27:28.107Z,0.00
2019-01-06T01:28:27.645Z,0.00
2019-01-06T01:29:27.621Z,0.00
2019-01-06T01:30:27.561Z,0.00
2019-01-06T01:31:27.616Z,0.00
2019-01-06T01:32:27.537Z,0.00
2019-01-06T01:33:27.791Z,0.00
2019-01-06T01:34:27.533Z,0.00
2019-01-06T01:35:27.501Z,0.00
2019-01-06T01:36:27.778Z,0.00
2019-01-06T01:37:27.482Z,0.00
2019-01-06T01:38:27.500Z,0.00
2019-01-06T01:39:27.489Z,0.00
2019-01-06T01:40:27.448Z,0.00
2019-01-06T01:41:27.432Z,0.00
2019-01-06T01:42:27.693Z,0.00
2019-01-06T01:43:27.412Z,0.00
2019-01-06T01:44:27.408Z,0.00
2019-01-06T01:45:27.396Z,0.00
2019-01-06T01:46:27.623Z,0.00
2019-01-06T01:47:27.383Z,0.00
2019-01-06T01:48:27.363Z,0.00
2019-01-06T01:49:27.440Z,0.00
2019-01-06T01:50:27.331Z,0.00
2019-01-06T01:51:27.574Z,0.00
2019-01-06T01:52:27.306Z,0.00
2019-01-06T01:53:27.309Z,0.00
2019-01-06T01:54:27.317Z,0.00
2019-01-06T01:55:27.286Z,0.00
2019-01-06T01:56:27.292Z,0.00
2019-01-06T01:57:27.268Z,0.00
2019-01-06T01:58:27.250Z,0.00
2019-01-06T01:59:27.261Z,0.00
2019-01-06T02:00:27.241Z,0.00
2019-01-06T02:01:27.484Z,0.00
2019-01-06T02:02:27.217Z,0.00
2019-01-06T02:03:27.199Z,0.00
2019-01-06T02:04:27.220Z,0.00
2019-01-06T02:05:27.180Z,0.00
2019-01-06T02:06:27.400Z,0.00
2019-01-06T02:07:27.147Z,0.00
2019-01-06T02:08:27.400Z,0.00
2019-01-06T02:09:27.140Z,0.00
2019-01-06T02:10:27.106Z,0.00
2019-01-06T02:11:27.094Z,0.00
2019-01-06T02:12:27.107Z,0.00
2019-01-06T02:13:27.071Z,0.00
2019-01-06T02:14:27.077Z,0.00
2019-01-06T02:15:27.071Z,0.00
2019-01-06T02:16:27.041Z,0.00
2019-01-06T02:17:27.042Z,0.00
2019-01-06T02:18:27.037Z,0.00
2019-01-06T02:19:27.057Z,0.00
2019-01-06T02:20:27.250Z,0.00
2019-01-06T02:21:26.982Z,0.00
2019-01-06T02:22:27.224Z,0.00
2019-01-06T02:23:26.958Z,0.00
2019-01-06T02:24:26.960Z,0.00
2019-01-06T02:25:26.939Z,0.00
2019-01-06T02:26:26.935Z,0.00
2019-01-06T02:27:26.924Z,0.00
2019-01-06T02:28:27.162Z,0.00
2019-01-06T02:29:26.895Z,0.00
2019-01-06T02:30:26.925Z,0.00
2019-01-06T02:31:27.121Z,0.00
2019-01-06T02:32:27.124Z,0.00
2019-01-06T02:33:26.845Z,0.00
2019-01-06T02:34:27.092Z,0.00
2019-01-06T02:35:26.837Z,0.00
2019-01-06T02:36:26.815Z,0.00
2019-01-06T02:37:27.062Z,0.00
2019-01-06T02:38:26.802Z,0.00
2019-01-06T02:39:26.787Z,0.00
2019-01-06T02:40:26.845Z,0.00
2019-01-06T02:41:26.765Z,0.00
2019-01-06T02:42:26.792Z,0.00
2019-01-06T02:43:26.742Z,0.00
2019-01-06T02:44:27.227Z,0.00
2019-01-06T02:45:26.740Z,0.00
2019-01-06T02:46:27.033Z,0.00
2019-01-06T02:47:26.715Z,0.00
2019-01-06T02:48:26.931Z,0.00
2019-01-06T02:49:26.668Z,0.00
2019-01-06T02:50:26.675Z,0.00
2019-01-06T02:51:26.926Z,0.00
2019-01-06T02:52:26.718Z,0.00
2019-01-06T02:53:26.872Z,0.00
2019-01-06T02:54:26.614Z,0.00
2019-01-06T02:55:26.630Z,0.00
2019-01-06T02:56:26.603Z,0.00
2019-01-06T02:57:26.828Z,0.00
2019-01-06T02:58:26.584Z,0.00
2019-01-06T02:59:26.560Z,0.00
2019-01-06T03:00:27.054Z,0.00
2019-01-06T03:01:26.539Z,0.00
2019-01-06T03:02:26.541Z,0.00
2019-01-06T03:03:26.523Z,0.00
2019-01-06T03:04:26.505Z,0.00
2019-01-06T03:05:26.551Z,0.00
2019-01-06T03:06:26.483Z,0.00
2019-01-06T03:07:26.476Z,0.00
2019-01-06T03:08:26.721Z,0.00
2019-01-06T03:09:26.539Z,0.00
2019-01-06T03:10:26.460Z,0.00
2019-01-06T03:11:26.676Z,0.00
2019-01-06T03:12:26.416Z,0.00
2019-01-06T03:13:26.484Z,0.00
2019-01-06T03:14:26.395Z,0.00
2019-01-06T03:15:26.648Z,0.00
2019-01-06T03:16:26.372Z,0.00
2019-01-06T03:17:26.892Z,0.00
2019-01-06T03:18:26.354Z,0.00
2019-01-06T03:19:26.340Z,0.00
2019-01-06T03:20:26.351Z,0.00
2019-01-06T03:21:26.579Z,0.00
2019-01-06T03:22:26.315Z,0.00
2019-01-06T03:23:26.534Z,0.00
2019-01-06T03:24:26.539Z,0.00
2019-01-06T03:25:26.301Z,0.00
2019-01-06T03:26:26.262Z,0.00
2019-01-06T03:27:26.502Z,0.00
2019-01-06T03:28:26.297Z,0.00
2019-01-06T03:29:26.220Z,0.00
2019-01-06T03:30:26.493Z,0.00
2019-01-06T03:31:26.244Z,0.00
2019-01-06T03:32:26.198Z,0.00
2019-01-06T03:33:26.434Z,0.00
2019-01-06T03:34:26.170Z,0.00
2019-01-06T03:35:26.428Z,0.00
2019-01-06T03:36:26.143Z,0.00
2019-01-06T03:37:26.137Z,0.00
2019-01-06T03:38:26.372Z,0.00
2019-01-06T03:39:26.445Z,0.00
2019-01-06T03:40:26.112Z,0.00
2019-01-06T03:41:26.100Z,0.00
2019-01-06T03:42:26.106Z,0.00
2019-01-06T03:43:26.063Z,0.00
2019-01-06T03:44:26.061Z,0.00
2019-01-06T03:45:26.062Z,0.00
2019-01-06T03:46:26.290Z,0.00
2019-01-06T03:47:26.274Z,0.00
2019-01-06T03:48:26.008Z,0.00
2019-01-06T03:49:26.512Z,0.00
2019-01-06T03:50:26.006Z,0.00
2019-01-06T03:51:26.002Z,0.00
2019-01-06T03:52:26.225Z,0.00
2019-01-06T03:53:25.973Z,0.00
2019-01-06T03:54:26.030Z,0.00
2019-01-06T03:55:25.961Z,0.00
2019-01-06T03:56:25.931Z,0.00
2019-01-06T03:57:25.913Z,0.00
2019-01-06T03:58:25.899Z,0.00
2019-01-06T03:59:26.149Z,0.00
2019-01-06T04:00:25.916Z,0.00
2019-01-06T04:01:25.880Z,0.00
2019-01-06T04:02:26.111Z,0.00
2019-01-06T04:03:25.896Z,0.00
2019-01-06T04:04:25.831Z,0.00
2019-01-06T04:05:25.841Z,0.00
2019-01-06T04:06:25.852Z,0.00
2019-01-06T04:07:25.902Z,0.00
2019-01-06T04:08:25.803Z,0.00
2019-01-06T04:09:25.829Z,0.00
2019-01-06T04:10:26.054Z,0.00
2019-01-06T04:11:25.761Z,0.00
2019-01-06T04:12:25.737Z,0.00
2019-01-06T04:13:26.001Z,0.00
2019-01-06T04:14:25.986Z,0.00
2019-01-06T04:15:25.714Z,0.00
2019-01-06T04:16:25.958Z,0.00
2019-01-06T04:17:25.686Z,0.00
2019-01-06T04:18:25.677Z,0.00
2019-01-06T04:19:25.865Z,0.00
2019-01-06T04:20:25.656Z,0.00
2019-01-06T04:21:25.637Z,0.00
2019-01-06T04:22:25.637Z,0.00
2019-01-06T04:23:25.622Z,0.00
2019-01-06T04:24:25.604Z,0.00
2019-01-06T04:25:25.595Z,0.00
2019-01-06T04:26:25.610Z,0.00
2019-01-06T04:27:25.571Z,0.00
2019-01-06T04:28:25.855Z,0.00
2019-01-06T04:29:25.547Z,0.00
2019-01-06T04:30:25.574Z,0.00
2019-01-06T04:31:25.543Z,0.00
2019-01-06T04:32:25.530Z,0.00
2019-01-06T04:33:25.500Z,0.00
2019-01-06T04:34:25.542Z,0.00
2019-01-06T04:35:25.481Z,0.00
2019-01-06T04:36:25.750Z,0.00
2019-01-06T04:37:25.477Z,0.00
2019-01-06T04:38:25.445Z,0.00
2019-01-06T04:39:25.485Z,0.00
2019-01-06T04:40:25.429Z,0.00
2019-01-06T04:41:25.442Z,0.00
2019-01-06T04:42:25.669Z,0.00
2019-01-06T04:43:25.643Z,0.00
2019-01-06T04:44:25.399Z,0.00
2019-01-06T04:45:25.420Z,0.00
2019-01-06T04:46:25.624Z,0.00
2019-01-06T04:47:25.366Z,0.00
2019-01-06T04:48:25.584Z,0.00
2019-01-06T04:49:25.333Z,0.00
2019-01-06T04:50:25.324Z,0.00
2019-01-06T04:51:25.322Z,0.00
2019-01-06T04:52:25.295Z,0.00
2019-01-06T04:53:25.284Z,0.00
2019-01-06T04:54:25.362Z,0.00
2019-01-06T04:55:25.282Z,0.00
2019-01-06T04:56:25.288Z,0.00
2019-01-06T04:57:25.250Z,0.00
2019-01-06T04:58:25.220Z,0.00
2019-01-06T04:59:25.230Z,0.00
2019-01-06T05:00:25.213Z,0.00
2019-01-06T05:01:25.199Z,0.00
2019-01-06T05:02:25.182Z,0.00
2019-01-06T05:03:25.175Z,0.00
2019-01-06T05:04:25.187Z,0.00
2019-01-06T05:05:25.156Z,0.00
2019-01-06T05:06:25.162Z,0.00
2019-01-06T05:07:25.121Z,0.00
2019-01-06T05:08:25.187Z,0.00
2019-01-06T05:09:25.357Z,0.00
2019-01-06T05:10:25.113Z,0.00
2019-01-06T05:11:25.212Z,0.00
2019-01-06T05:12:25.088Z,0.00
2019-01-06T05:13:25.319Z,0.00
2019-01-06T05:14:25.307Z,0.00
2019-01-06T05:15:25.099Z,0.00
2019-01-06T05:16:25.033Z,0.00
2019-01-06T05:17:25.283Z,0.00
2019-01-06T05:18:25.010Z,0.00
2019-01-06T05:19:25.016Z,0.00
2019-01-06T05:20:24.995Z,0.00
2019-01-06T05:21:24.983Z,0.00
2019-01-06T05:22:24.955Z,0.00
2019-01-06T05:23:25.192Z,0.00
2019-01-06T05:24:24.966Z,0.00
2019-01-06T05:25:25.430Z,0.00
2019-01-06T05:26:24.929Z,0.00
2019-01-06T05:27:24.902Z,0.00
2019-01-06T05:28:25.397Z,0.00
2019-01-06T05:29:24.878Z,0.00
2019-01-06T05:30:25.125Z,0.00
2019-01-06T05:31:25.126Z,0.00
2019-01-06T05:32:25.142Z,0.00
2019-01-06T05:33:24.847Z,0.00
2019-01-06T05:34:24.864Z,0.00
2019-01-06T05:35:24.807Z,0.00
2019-01-06T05:36:24.828Z,0.00
2019-01-06T05:37:24.785Z,0.00
2019-01-06T05:38:25.030Z,0.00
2019-01-06T05:39:24.781Z,0.00
2019-01-06T05:40:24.760Z,0.00
2019-01-06T05:41:24.780Z,0.00
2019-01-06T05:42:24.971Z,0.00
2019-01-06T05:43:24.793Z,0.00
2019-01-06T05:44:24.707Z,0.00
2019-01-06T05:45:24.969Z,0.00
2019-01-06T05:46:24.933Z,0.00
2019-01-06T05:47:24.703Z,0.00
2019-01-06T05:48:25.664Z,0.00
2019-01-06T05:49:24.662Z,0.00
2019-01-06T05:50:24.905Z,0.00
2019-01-06T05:51:24.638Z,0.00
2019-01-06T05:52:24.892Z,0.00
2019-01-06T05:53:24.612Z,0.00
2019-01-06T05:54:24.597Z,0.00
2019-01-06T05:55:24.846Z,0.00
2019-01-06T05:56:24.826Z,0.00
2019-01-06T05:57:24.824Z,0.00
2019-01-06T05:58:24.802Z,0.00
2019-01-06T05:59:24.558Z,0.00
2019-01-06T06:00:24.602Z,0.00
2019-01-06T06:01:24.521Z,0.00
2019-01-06T06:02:24.593Z,0.00
2019-01-06T06:03:24.512Z,0.00
2019-01-06T06:04:24.486Z,0.00
2019-01-06T06:05:24.504Z,0.00
2019-01-06T06:06:24.727Z,0.00
2019-01-06T06:07:24.465Z,0.00
2019-01-06T06:08:24.703Z,0.00
2019-01-06T06:09:24.467Z,0.00
2019-01-06T06:10:24.445Z,0.00
2019-01-06T06:11:24.423Z,0.00
2019-01-06T06:12:24.416Z,0.00
2019-01-06T06:13:24.644Z,0.00
2019-01-06T06:14:24.371Z,0.00
2019-01-06T06:15:24.615Z,0.00
2019-01-06T06:16:25.107Z,0.00
2019-01-06T06:17:24.368Z,0.00
2019-01-06T06:18:24.346Z,0.00
2019-01-06T06:19:24.332Z,0.00
2019-01-06T06:20:24.320Z,0.00
2019-01-06T06:21:24.289Z,0.00
2019-01-06T06:22:24.302Z,0.00
2019-01-06T06:23:24.273Z,0.00
2019-01-06T06:24:24.507Z,0.00
2019-01-06T06:25:24.582Z,0.00
2019-01-06T06:26:24.495Z,0.00
2019-01-06T06:27:24.251Z,0.00
2019-01-06T06:28:24.216Z,0.00
2019-01-06T06:29:24.207Z,0.00
2019-01-06T06:30:24.295Z,0.00
2019-01-06T06:31:24.437Z,0.00
2019-01-06T06:32:24.182Z,0.00
2019-01-06T06:33:24.659Z,0.00
2019-01-06T06:34:24.398Z,0.00
2019-01-06T06:35:24.158Z,0.00
2019-01-06T06:36:24.120Z,0.00
2019-01-06T06:37:24.145Z,0.00
2019-01-06T06:38:24.114Z,0.00
2019-01-06T06:39:24.343Z,0.00
2019-01-06T06:40:24.603Z,0.00
2019-01-06T06:41:24.081Z,0.00
2019-01-06T06:42:24.073Z,0.00
2019-01-06T06:43:24.087Z,0.00
2019-01-06T06:44:24.037Z,0.00
2019-01-06T06:45:24.020Z,0.00
2019-01-06T06:46:24.034Z,0.00
2019-01-06T06:47:24.268Z,0.00
2019-01-06T06:48:24.013Z,0.00
2019-01-06T06:49:24.235Z,0.00
2019-01-06T06:50:24.234Z,0.00
2019-01-06T06:51:23.965Z,0.00
2019-01-06T06:52:23.958Z,0.00
2019-01-06T06:53:23.953Z,0.00
2019-01-06T06:54:23.924Z,0.00
2019-01-06T06:55:23.970Z,0.00
2019-01-06T06:56:24.163Z,0.00
2019-01-06T06:57:23.909Z,0.00
2019-01-06T06:58:24.141Z,0.00
2019-01-06T06:59:23.889Z,0.00
2019-01-06T07:00:24.491Z,0.00
2019-01-06T07:01:23.889Z,0.00
2019-01-06T07:02:24.105Z,0.00
2019-01-06T07:03:23.827Z,0.00
2019-01-06T07:04:24.061Z,0.00
2019-01-06T07:05:23.812Z,0.00
2019-01-06T07:06:23.803Z,0.00
2019-01-06T07:07:24.051Z,0.00
2019-01-06T07:08:23.784Z,0.00
2019-01-06T07:09:23.766Z,0.00
2019-01-06T07:10:24.019Z,0.00
2019-01-06T07:11:23.736Z,0.00
2019-01-06T07:12:23.730Z,0.00
2019-01-06T07:13:23.767Z,0.00
2019-01-06T07:14:24.224Z,0.00
2019-01-06T07:15:23.706Z,0.00
2019-01-06T07:16:23.996Z,0.00
2019-01-06T07:17:23.683Z,0.00
2019-01-06T07:18:23.684Z,0.00
2019-01-06T07:19:23.665Z,0.00
2019-01-06T07:20:23.902Z,0.00
2019-01-06T07:21:23.631Z,0.00
2019-01-06T07:22:23.867Z,0.00
2019-01-06T07:23:23.678Z,0.00
2019-01-06T07:24:23.864Z,0.00
2019-01-06T07:25:23.589Z,0.00
2019-01-06T07:26:23.584Z,0.00
2019-01-06T07:27:23.820Z,0.00
2019-01-06T07:28:23.806Z,0.00
2019-01-06T07:29:23.564Z,0.00
2019-01-06T07:30:23.536Z,0.00
2019-01-06T07:31:23.516Z,0.00
2019-01-06T07:32:23.766Z,0.00
2019-01-06T07:33:23.511Z,0.00
2019-01-06T07:34:23.546Z,0.00
2019-01-06T07:35:23.492Z,0.00
2019-01-06T07:36:23.464Z,0.00
2019-01-06T07:37:23.475Z,0.00
2019-01-06T07:38:23.474Z,0.00
2019-01-06T07:39:23.705Z,0.00
2019-01-06T07:40:23.429Z,0.00
2019-01-06T07:41:23.420Z,0.00
2019-01-06T07:42:23.400Z,0.00
2019-01-06T07:43:23.685Z,0.00
2019-01-06T07:44:23.389Z,0.00
2019-01-06T07:45:23.655Z,0.00
2019-01-06T07:46:23.611Z,0.00
2019-01-06T07:47:23.849Z,4.00
2019-01-06T07:48:23.349Z,4.00
2019-01-06T07:49:23.340Z,4.00
2019-01-06T07:50:23.324Z,4.00
2019-01-06T07:51:23.804Z,4.00
2019-01-06T07:52:23.300Z,4.00
2019-01-06T07:53:23.308Z,4.00
2019-01-06T07:54:23.272Z,4.00
2019-01-06T07:55:23.521Z,4.00
2019-01-06T07:56:23.241Z,4.00
2019-01-06T07:57:23.241Z,4.00
2019-01-06T07:58:23.309Z,0.00
2019-01-06T07:59:23.463Z,4.00
2019-01-06T08:00:23.466Z,4.00
2019-01-06T08:01:23.185Z,4.00
2019-01-06T08:02:23.182Z,4.00
2019-01-06T08:03:23.194Z,4.00
2019-01-06T08:04:23.221Z,4.00
2019-01-06T08:05:23.567Z,4.00
2019-01-06T08:06:23.391Z,4.00
2019-01-06T08:07:23.623Z,4.00
2019-01-06T08:08:23.126Z,8.00
2019-01-06T08:09:23.362Z,4.00
2019-01-06T08:10:23.355Z,4.00
2019-01-06T08:11:23.117Z,8.00
2019-01-06T08:12:23.317Z,4.00
2019-01-06T08:13:23.142Z,4.00
2019-01-06T08:14:23.061Z,4.00
2019-01-06T08:15:23.313Z,4.00
2019-01-06T08:16:23.337Z,4.00
2019-01-06T08:17:23.274Z,4.00
2019-01-06T08:18:23.883Z,8.00
2019-01-06T08:19:23.332Z,8.00
2019-01-06T08:20:23.232Z,4.00
2019-01-06T08:21:22.973Z,4.00
2019-01-06T08:22:22.959Z,4.00
2019-01-06T08:23:23.203Z,8.00
2019-01-06T08:24:23.222Z,8.00
2019-01-06T08:25:23.174Z,8.00
2019-01-06T08:26:23.168Z,8.00
2019-01-06T08:27:22.910Z,8.00
2019-01-06T08:28:22.892Z,8.00
2019-01-06T08:29:22.887Z,8.00
2019-01-06T08:30:23.187Z,8.00
2019-01-06T08:31:23.439Z,8.00
2019-01-06T08:32:23.120Z,8.00
2019-01-06T08:33:23.148Z,8.00
2019-01-06T08:34:23.077Z,8.00
2019-01-06T08:35:22.833Z,8.00
2019-01-06T08:36:23.073Z,12.00
2019-01-06T08:37:22.796Z,12.00
2019-01-06T08:38:23.041Z,12.00
2019-01-06T08:39:22.801Z,12.00
2019-01-06T08:40:23.375Z,8.00
2019-01-06T08:41:22.753Z,12.00
2019-01-06T08:42:23.054Z,12.00
2019-01-06T08:43:22.783Z,12.00
2019-01-06T08:44:22.734Z,12.00
2019-01-06T08:45:22.720Z,12.00
2019-01-06T08:46:22.955Z,12.00
2019-01-06T08:47:22.697Z,12.00
2019-01-06T08:48:22.681Z,12.00
2019-01-06T08:49:22.673Z,12.00
2019-01-06T08:50:22.681Z,16.00
2019-01-06T08:51:22.652Z,12.00
2019-01-06T08:52:22.673Z,16.00
2019-01-06T08:53:22.627Z,16.00
2019-01-06T08:54:22.870Z,12.00
2019-01-06T08:55:22.631Z,16.00
2019-01-06T08:56:22.593Z,12.00
2019-01-06T08:57:22.834Z,16.00
2019-01-06T08:58:22.836Z,16.00
2019-01-06T08:59:23.388Z,16.00
2019-01-06T09:00:22.615Z,16.00
2019-01-06T09:01:22.633Z,16.00
2019-01-06T09:02:23.107Z,16.00
2019-01-06T09:03:22.800Z,16.00
2019-01-06T09:04:22.508Z,20.00
2019-01-06T09:05:22.520Z,16.00
2019-01-06T09:06:23.274Z,16.00
2019-01-06T09:07:22.478Z,20.00
2019-01-06T09:08:23.376Z,20.00
2019-01-06T09:09:22.717Z,16.00
2019-01-06T09:10:22.716Z,16.00
2019-01-06T09:11:22.438Z,20.00
2019-01-06T09:12:22.432Z,16.00
2019-01-06T09:13:22.462Z,16.00
2019-01-06T09:14:22.392Z,16.00
2019-01-06T09:15:22.401Z,20.00
2019-01-06T09:16:22.410Z,20.00
2019-01-06T09:17:22.372Z,20.00
2019-01-06T09:18:22.404Z,20.00
2019-01-06T09:19:22.593Z,20.00
2019-01-06T09:20:22.346Z,16.00
2019-01-06T09:21:22.337Z,16.00
2019-01-06T09:22:23.274Z,16.00
2019-01-06T09:23:22.315Z,20.00
2019-01-06T09:24:22.544Z,20.00
2019-01-06T09:25:22.289Z,20.00
2019-01-06T09:26:22.298Z,20.00
2019-01-06T09:27:22.314Z,20.00
2019-01-06T09:28:22.258Z,20.00
2019-01-06T09:29:22.234Z,20.00
2019-01-06T09:30:22.241Z,20.00
2019-01-06T09:31:22.465Z,20.00
2019-01-06T09:32:22.253Z,20.00
2019-01-06T09:33:22.451Z,20.00
2019-01-06T09:34:22.186Z,20.00
2019-01-06T09:35:22.203Z,20.00
2019-01-06T09:36:22.174Z,24.00
2019-01-06T09:37:22.166Z,24.00
2019-01-06T09:38:22.136Z,20.00
2019-01-06T09:39:22.375Z,20.00
2019-01-06T09:40:22.132Z,20.00
2019-01-06T09:41:26.622Z,20.00
2019-01-06T09:42:22.096Z,24.00
2019-01-06T09:43:22.078Z,24.00
2019-01-06T09:44:22.070Z,20.00
2019-01-06T09:45:22.070Z,20.00
2019-01-06T09:46:22.062Z,20.00
2019-01-06T09:47:22.072Z,20.00
2019-01-06T09:48:22.275Z,24.00
2019-01-06T09:49:22.284Z,20.00
2019-01-06T09:50:22.009Z,20.00
2019-01-06T09:51:22.002Z,24.00
2019-01-06T09:52:21.981Z,24.00
2019-01-06T09:53:21.994Z,20.00
2019-01-06T09:54:21.960Z,20.00
2019-01-06T09:55:21.947Z,20.00
2019-01-06T09:56:21.963Z,24.00
2019-01-06T09:57:22.181Z,20.00
2019-01-06T09:58:21.920Z,20.00
2019-01-06T09:59:21.931Z,24.00
2019-01-06T10:00:22.151Z,20.00
2019-01-06T10:01:21.895Z,20.00
2019-01-06T10:02:22.288Z,24.00
2019-01-06T10:03:21.878Z,24.00
2019-01-06T10:04:21.880Z,24.00
2019-01-06T10:05:21.833Z,24.00
2019-01-06T10:06:21.863Z,24.00
2019-01-06T10:07:21.830Z,24.00
2019-01-06T10:08:21.811Z,24.00
2019-01-06T10:09:21.799Z,20.00
2019-01-06T10:10:22.037Z,24.00
2019-01-06T10:11:22.048Z,24.00
2019-01-06T10:12:21.763Z,24.00
2019-01-06T10:13:22.011Z,24.00
2019-01-06T10:14:21.741Z,28.00
2019-01-06T10:15:21.973Z,24.00
2019-01-06T10:16:21.819Z,24.00
2019-01-06T10:17:21.787Z,24.00
2019-01-06T10:18:21.982Z,28.00
2019-01-06T10:19:21.951Z,28.00
2019-01-06T10:20:21.673Z,28.00
2019-01-06T10:21:21.684Z,32.00
2019-01-06T10:22:21.656Z,32.00
2019-01-06T10:23:21.640Z,28.00
2019-01-06T10:24:21.643Z,28.00
2019-01-06T10:25:21.640Z,32.00
2019-01-06T10:26:21.636Z,32.00
2019-01-06T10:27:21.603Z,32.00
2019-01-06T10:28:21.602Z,28.00
2019-01-06T10:29:21.580Z,32.00
2019-01-06T10:30:21.567Z,32.00
2019-01-06T10:31:21.576Z,32.00
2019-01-06T10:32:21.569Z,32.00
2019-01-06T10:33:21.535Z,32.00
2019-01-06T10:34:21.563Z,32.00
2019-01-06T10:35:21.511Z,32.00
2019-01-06T10:36:21.518Z,36.00
2019-01-06T10:37:21.510Z,36.00
2019-01-06T10:38:21.502Z,36.00
2019-01-06T10:39:21.467Z,32.00
2019-01-06T10:40:21.717Z,32.00
2019-01-06T10:41:21.456Z,32.00
2019-01-06T10:42:21.703Z,32.00
2019-01-06T10:43:21.424Z,36.00
2019-01-06T10:44:21.925Z,36.00
2019-01-06T10:45:21.401Z,36.00
2019-01-06T10:46:21.652Z,32.00
2019-01-06T10:47:21.394Z,36.00
2019-01-06T10:48:21.388Z,36.00
2019-01-06T10:49:21.370Z,36.00
2019-01-06T10:50:21.602Z,36.00
2019-01-06T10:51:21.611Z,44.00
2019-01-06T10:52:21.340Z,36.00
2019-01-06T10:53:21.570Z,36.00
2019-01-06T10:54:22.077Z,36.00
2019-01-06T10:55:21.551Z,36.00
2019-01-06T10:56:21.365Z,32.00
2019-01-06T10:57:21.279Z,36.00
2019-01-06T10:58:21.286Z,36.00
2019-01-06T10:59:21.253Z,36.00
2019-01-06T11:00:21.246Z,40.00
2019-01-06T11:01:21.515Z,36.00
2019-01-06T11:02:21.224Z,40.00
2019-01-06T11:03:21.222Z,36.00
2019-01-06T11:04:21.699Z,40.00
2019-01-06T11:05:21.217Z,40.00
2019-01-06T11:06:21.217Z,36.00
2019-01-06T11:07:21.415Z,32.00
2019-01-06T11:08:21.153Z,32.00
2019-01-06T11:09:21.391Z,28.00
2019-01-06T11:10:21.638Z,32.00
2019-01-06T11:11:21.127Z,28.00
2019-01-06T11:12:21.113Z,32.00
2019-01-06T11:13:21.092Z,36.00
2019-01-06T11:14:21.342Z,32.00
2019-01-06T11:15:21.076Z,36.00
2019-01-06T11:16:21.363Z,32.00
2019-01-06T11:17:21.073Z,32.00
2019-01-06T11:18:21.049Z,32.00
2019-01-06T11:19:21.025Z,36.00
2019-01-06T11:20:21.208Z,28.00
2019-01-06T11:21:21.072Z,32.00
2019-01-06T11:22:21.013Z,32.00
2019-01-06T11:23:21.245Z,36.00
2019-01-06T11:24:21.988Z,36.00
2019-01-06T11:25:21.238Z,32.00
2019-01-06T11:26:21.190Z,32.00
2019-01-06T11:27:21.797Z,32.00
2019-01-06T11:28:20.972Z,32.00
2019-01-06T11:29:21.514Z,32.00
2019-01-06T11:30:20.919Z,36.00
2019-01-06T11:31:21.146Z,36.00
2019-01-06T11:32:20.911Z,36.00
2019-01-06T11:33:20.890Z,32.00
2019-01-06T11:34:20.868Z,32.00
2019-01-06T11:35:20.867Z,32.00
2019-01-06T11:36:21.098Z,32.00
2019-01-06T11:37:21.086Z,36.00
2019-01-06T11:38:20.828Z,32.00
2019-01-06T11:39:20.819Z,32.00
2019-01-06T11:40:20.808Z,32.00
2019-01-06T11:41:21.875Z,32.00
2019-01-06T11:42:20.796Z,36.00
2019-01-06T11:43:21.285Z,32.00
2019-01-06T11:44:20.755Z,32.00
2019-01-06T11:45:20.749Z,36.00
2019-01-06T11:46:20.749Z,36.00
2019-01-06T11:47:20.742Z,36.00
2019-01-06T11:48:20.723Z,40.00
2019-01-06T11:49:20.732Z,36.00
2019-01-06T11:50:20.733Z,40.00
2019-01-06T11:51:20.715Z,40.00
2019-01-06T11:52:20.680Z,40.00
2019-01-06T11:53:20.687Z,40.00
2019-01-06T11:54:20.653Z,40.00
2019-01-06T11:55:20.638Z,40.00
2019-01-06T11:56:20.685Z,36.00
2019-01-06T11:57:20.642Z,36.00
2019-01-06T11:58:20.608Z,36.00
2019-01-06T11:59:20.641Z,36.00
2019-01-06T12:00:20.591Z,36.00
2019-01-06T12:01:20.600Z,36.00
2019-01-06T12:02:20.592Z,36.00
2019-01-06T12:03:20.556Z,36.00
2019-01-06T12:04:20.804Z,36.00
2019-01-06T12:05:20.542Z,36.00
2019-01-06T12:06:20.825Z,40.00
2019-01-06T12:07:20.583Z,36.00
2019-01-06T12:08:20.502Z,40.00
2019-01-06T12:09:20.513Z,40.00
2019-01-06T12:10:20.750Z,40.00
2019-01-06T12:11:20.486Z,36.00
2019-01-06T12:12:20.723Z,36.00
2019-01-06T12:13:22.585Z,36.00
2019-01-06T12:14:20.423Z,40.00
2019-01-06T12:15:20.443Z,36.00
2019-01-06T12:16:20.407Z,36.00
2019-01-06T12:17:20.406Z,36.00
2019-01-06T12:18:20.682Z,32.00
2019-01-06T12:19:20.639Z,32.00
2019-01-06T12:20:20.356Z,32.00
2019-01-06T12:21:20.354Z,32.00
2019-01-06T12:22:20.369Z,32.00
2019-01-06T12:23:20.324Z,32.00
2019-01-06T12:24:20.335Z,28.00
2019-01-06T12:25:20.570Z,28.00
2019-01-06T12:26:20.550Z,24.00
2019-01-06T12:27:20.299Z,28.00
2019-01-06T12:28:20.540Z,24.00
2019-01-06T12:29:20.273Z,28.00
2019-01-06T12:30:20.504Z,32.00
2019-01-06T12:31:20.530Z,36.00
2019-01-06T12:32:20.259Z,36.00
2019-01-06T12:33:20.247Z,32.00
2019-01-06T12:34:20.251Z,32.00
2019-01-06T12:35:20.211Z,32.00
2019-01-06T12:36:20.181Z,28.00
2019-01-06T12:37:20.214Z,24.00
2019-01-06T12:38:20.214Z,24.00
2019-01-06T12:39:20.410Z,28.00
2019-01-06T12:40:20.388Z,24.00
2019-01-06T12:41:20.420Z,24.00
2019-01-06T12:42:20.131Z,24.00
2019-01-06T12:43:20.362Z,24.00
2019-01-06T12:44:20.354Z,20.00
2019-01-06T12:45:20.180Z,24.00
2019-01-06T12:46:20.083Z,24.00
2019-01-06T12:47:20.347Z,24.00
2019-01-06T12:48:20.567Z,24.00
2019-01-06T12:49:20.051Z,24.00
2019-01-06T12:50:20.028Z,24.00
2019-01-06T12:51:20.036Z,24.00
2019-01-06T12:52:20.062Z,20.00
2019-01-06T12:53:20.001Z,20.00
2019-01-06T12:54:20.239Z,20.00
2019-01-06T12:55:19.988Z,24.00
2019-01-06T12:56:20.224Z,24.00
2019-01-06T12:57:19.984Z,24.00
2019-01-06T12:58:19.994Z,28.00
2019-01-06T12:59:19.972Z,28.00
2019-01-06T13:00:19.975Z,32.00
2019-01-06T13:01:19.910Z,28.00
2019-01-06T13:02:20.173Z,28.00
2019-01-06T13:03:20.190Z,28.00
2019-01-06T13:04:19.906Z,28.00
2019-01-06T13:05:20.127Z,32.00
2019-01-06T13:06:19.866Z,28.00
2019-01-06T13:07:19.846Z,28.00
2019-01-06T13:08:19.848Z,32.00
2019-01-06T13:09:19.838Z,36.00